Terminal Aerodrome Forecast
Issued by NWS Charleston, WV

Home | Current Version | Previous Version | Text Only | Print | Product List | Glossary On
Versions: 1 2 3 4 5 6 7 8 9 10 11 12 13 14 15 16 17 18 19 20 21 22 23 24
745
FTUS41 KRLX 251747
TAFPKB
TAF
KPKB 251747Z 2518/2618 VRB02KT P6SM SCT250
     FM261000 15003KT P6SM SCT150
     FM261200 18005KT P6SM BKN060
     FM261500 20008KT P6SM VCTS BKN045CB=

USA.gov is the U.S. government's official web portal to all federal, state and local government web resources and services.